createdAt,value
2019-02-22T00:00:55.522Z,32.80
2019-02-22T00:03:24.003Z,34.37
2019-02-22T00:05:52.556Z,33.67
2019-02-22T00:08:21.059Z,35.60
2019-02-22T00:10:49.492Z,33.97
2019-02-22T00:13:17.996Z,33.77
2019-02-22T00:15:46.492Z,34.10
2019-02-22T00:18:14.912Z,34.10
2019-02-22T00:20:43.420Z,34.27
2019-02-22T00:23:11.896Z,33.37
2019-02-22T00:25:41.152Z,33.70
2019-02-22T00:28:09.928Z,33.60
2019-02-22T00:30:38.692Z,33.60
2019-02-22T00:33:07.220Z,33.23
2019-02-22T00:35:35.640Z,32.47
2019-02-22T00:38:04.149Z,33.40
2019-02-22T00:40:32.629Z,31.80
2019-02-22T00:43:01.048Z,34.27
2019-02-22T00:45:29.488Z,33.40
2019-02-22T00:47:57.994Z,32.73
2019-02-22T00:50:26.493Z,33.73
2019-02-22T00:52:54.948Z,34.60
2019-02-22T00:55:23.458Z,34.57
2019-02-22T00:57:51.952Z,35.47
2019-02-22T01:00:20.376Z,34.57
2019-02-22T01:02:48.797Z,34.03
2019-02-22T01:05:17.233Z,34.97
2019-02-22T01:07:45.666Z,34.53
2019-02-22T01:10:14.245Z,33.60
2019-02-22T01:12:42.677Z,36.00
2019-02-22T01:15:11.170Z,34.77
2019-02-22T01:17:39.673Z,34.40
2019-02-22T01:20:08.177Z,35.80
2019-02-22T01:22:36.605Z,35.43
2019-02-22T01:25:05.157Z,35.87
2019-02-22T01:27:33.953Z,34.87
2019-02-22T01:30:02.365Z,36.20
2019-02-22T01:32:30.845Z,35.33
2019-02-22T01:34:59.261Z,35.53
2019-02-22T01:37:27.693Z,34.50
2019-02-22T01:39:56.197Z,34.90
2019-02-22T01:42:24.631Z,35.37
2019-02-22T01:44:53.127Z,35.17
2019-02-22T01:47:21.638Z,34.83
2019-02-22T01:49:50.146Z,34.17
2019-02-22T01:52:18.554Z,34.30
2019-02-22T01:54:46.958Z,33.40
2019-02-22T01:57:16.025Z,33.83
2019-02-22T01:59:44.789Z,31.03
2019-02-22T02:02:13.286Z,31.90
2019-02-22T02:04:42.297Z,32.95
2019-02-22T02:07:11.006Z,31.30
2019-02-22T02:09:39.407Z,31.17
2019-02-22T02:12:07.898Z,32.53
2019-02-22T02:14:36.398Z,32.13
2019-02-22T02:17:05.117Z,31.33
2019-02-22T02:19:33.523Z,32.43
2019-02-22T02:22:01.944Z,32.07
2019-02-22T02:24:30.429Z,31.60
2019-02-22T02:26:59.270Z,30.37
2019-02-22T02:29:27.794Z,30.87
2019-02-22T02:31:56.294Z,30.70
2019-02-22T02:34:24.770Z,31.23
2019-02-22T02:36:53.198Z,32.10
2019-02-22T02:39:21.615Z,33.17
2019-02-22T02:41:50.034Z,31.63
2019-02-22T02:44:18.526Z,31.23
2019-02-22T02:46:46.935Z,31.70
2019-02-22T02:49:15.375Z,31.13
2019-02-22T02:51:43.880Z,31.00
2019-02-22T02:54:12.626Z,30.33
2019-02-22T02:56:41.843Z,32.63
2019-02-22T02:59:10.268Z,31.33
2019-02-22T03:01:38.831Z,30.60
2019-02-22T03:04:07.298Z,32.43
2019-02-22T03:06:44.171Z,31.80
2019-02-22T03:09:12.671Z,31.43
2019-02-22T03:11:41.077Z,31.10
2019-02-22T03:14:09.489Z,31.07
2019-02-22T03:16:38.378Z,32.03
2019-02-22T03:19:06.959Z,31.90
2019-02-22T03:21:35.967Z,31.37
2019-02-22T03:24:04.459Z,31.97
2019-02-22T03:26:32.883Z,30.93
2019-02-22T03:29:01.323Z,32.73
2019-02-22T03:31:29.734Z,32.33
2019-02-22T03:33:58.152Z,33.43
2019-02-22T03:36:26.651Z,34.87
2019-02-22T03:38:55.132Z,33.63
2019-02-22T03:41:32.284Z,32.63
2019-02-22T03:43:53.928Z,32.37
2019-02-22T03:46:22.420Z,32.23
2019-02-22T03:48:50.904Z,33.43
2019-02-22T03:51:19.401Z,33.00
2019-02-22T03:53:57.385Z,32.33
2019-02-22T03:56:25.033Z,31.10
2019-02-22T03:58:53.551Z,32.70
2019-02-22T04:01:22.120Z,34.93
2019-02-22T04:03:50.708Z,33.10
2019-02-22T04:06:19.206Z,36.17
2019-02-22T04:08:47.688Z,34.57
2019-02-22T04:11:16.242Z,33.33
2019-02-22T04:13:45.100Z,33.50
2019-02-22T04:16:13.630Z,31.20
2019-02-22T04:18:42.864Z,29.63
2019-02-22T04:21:11.679Z,30.13
2019-02-22T04:23:40.285Z,28.77
2019-02-22T04:26:08.856Z,29.23
2019-02-22T04:28:37.808Z,28.90
2019-02-22T04:31:06.586Z,28.80
2019-02-22T04:33:35.171Z,28.63
2019-02-22T04:36:03.771Z,27.90
2019-02-22T04:38:32.317Z,27.10
2019-02-22T04:41:00.781Z,27.10
2019-02-22T04:43:29.669Z,27.00
2019-02-22T04:45:58.172Z,26.77
2019-02-22T04:48:26.832Z,27.83
2019-02-22T04:50:55.471Z,25.67
2019-02-22T04:53:24.044Z,26.13
2019-02-22T04:55:52.576Z,26.33
2019-02-22T04:58:21.213Z,26.40
2019-02-22T05:00:49.717Z,25.63
2019-02-22T05:03:18.177Z,24.13
2019-02-22T05:05:46.681Z,25.57
2019-02-22T05:08:15.434Z,25.93
2019-02-22T05:10:43.981Z,26.77
2019-02-22T05:13:12.553Z,25.80
2019-02-22T05:15:41.101Z,26.37
2019-02-22T05:18:09.665Z,26.00
2019-02-22T05:20:38.211Z,26.80
2019-02-22T05:23:07.602Z,26.03
2019-02-22T05:25:36.361Z,25.63
2019-02-22T05:28:04.961Z,27.07
2019-02-22T05:30:36.335Z,25.97
2019-02-22T05:33:03.899Z,26.17
2019-02-22T05:35:32.410Z,26.30
2019-02-22T05:38:01.078Z,27.80
2019-02-22T05:40:29.985Z,26.97
2019-02-22T05:42:58.565Z,26.43
2019-02-22T05:45:27.021Z,25.60
2019-02-22T05:47:55.549Z,26.10
2019-02-22T05:50:24.074Z,26.80
2019-02-22T05:52:52.767Z,27.40
2019-02-22T05:55:21.351Z,26.90
2019-02-22T05:57:49.874Z,28.20
2019-02-22T06:00:19.062Z,28.87
2019-02-22T06:02:47.622Z,28.17
2019-02-22T06:05:16.259Z,28.47
2019-02-22T06:07:44.805Z,27.70
2019-02-22T06:10:13.425Z,27.90
2019-02-22T06:12:41.910Z,28.03
2019-02-22T06:15:10.450Z,28.50
2019-02-22T06:17:39.228Z,30.13
2019-02-22T06:20:08.097Z,28.90
2019-02-22T06:22:36.601Z,29.80
2019-02-22T06:25:05.140Z,29.67
2019-02-22T06:27:34.082Z,28.33
2019-02-22T06:30:02.582Z,29.00
2019-02-22T06:32:31.093Z,27.70
2019-02-22T06:34:59.526Z,28.80
2019-02-22T06:37:28.100Z,29.33
2019-02-22T06:39:56.621Z,28.53
2019-02-22T06:42:25.197Z,30.77
2019-02-22T06:44:53.943Z,28.70
2019-02-22T06:47:22.957Z,30.10
2019-02-22T06:49:51.644Z,31.17
2019-02-22T06:52:20.220Z,32.03
2019-02-22T06:54:48.792Z,31.40
2019-02-22T06:57:17.368Z,31.40
2019-02-22T06:59:45.796Z,30.77
2019-02-22T07:02:14.249Z,30.47
2019-02-22T07:04:43.808Z,31.90
2019-02-22T07:07:12.416Z,30.77
2019-02-22T07:09:41.376Z,30.03
2019-02-22T07:12:23.866Z,31.10
2019-02-22T07:14:52.329Z,31.87
2019-02-22T07:17:20.941Z,31.93
2019-02-22T07:19:49.453Z,33.57
2019-02-22T07:22:18.052Z,31.97
2019-02-22T07:24:46.536Z,32.57
2019-02-22T07:27:14.935Z,31.70
2019-02-22T07:29:44.209Z,33.43
2019-02-22T07:32:12.789Z,32.60
2019-02-22T07:34:41.304Z,31.83
2019-02-22T07:37:09.907Z,33.07
2019-02-22T07:39:38.746Z,33.80
2019-02-22T07:42:07.277Z,33.57
2019-02-22T07:44:35.729Z,33.93
2019-02-22T07:47:04.301Z,34.97
2019-02-22T07:49:32.925Z,36.07
2019-02-22T07:52:01.413Z,36.10
2019-02-22T07:54:30.667Z,37.10
2019-02-22T07:56:59.717Z,36.27
2019-02-22T07:59:28.717Z,38.07
2019-02-22T08:01:57.845Z,36.43
2019-02-22T08:04:27.333Z,42.43
2019-02-22T08:06:56.341Z,42.27
2019-02-22T08:09:25.229Z,44.07
2019-02-22T08:11:54.246Z,41.40
2019-02-22T08:14:23.205Z,38.67
2019-02-22T08:16:52.269Z,37.80
2019-02-22T08:19:21.646Z,37.67
2019-02-22T08:21:50.665Z,38.57
2019-02-22T08:24:19.705Z,40.37
2019-02-22T08:26:48.253Z,40.33
2019-02-22T08:29:16.749Z,37.60
2019-02-22T08:31:45.586Z,40.57
2019-02-22T08:34:14.094Z,42.63
2019-02-22T08:36:43.049Z,40.07
2019-02-22T08:39:11.529Z,38.67
2019-02-22T08:41:40.073Z,40.07
2019-02-22T08:44:08.626Z,39.37
2019-02-22T08:46:37.183Z,37.63
2019-02-22T08:49:05.694Z,37.33
2019-02-22T08:51:34.150Z,37.33
2019-02-22T08:54:02.534Z,37.73
2019-02-22T08:56:31.410Z,37.87
2019-02-22T08:58:59.846Z,37.43
2019-02-22T09:01:28.284Z,38.60
2019-02-22T09:03:56.762Z,41.53
2019-02-22T09:06:25.158Z,41.80
2019-02-22T09:08:53.627Z,41.70
2019-02-22T09:11:22.176Z,37.97
2019-02-22T09:13:50.659Z,33.20
2019-02-22T09:16:19.098Z,34.23
2019-02-22T09:18:48.034Z,33.93
2019-02-22T09:21:17.212Z,33.07
2019-02-22T09:23:46.351Z,33.40
2019-02-22T09:26:15.431Z,33.63
2019-02-22T09:28:44.423Z,33.60
2019-02-22T09:31:13.327Z,32.40
2019-02-22T09:33:42.466Z,31.40
2019-02-22T09:36:11.499Z,31.67
2019-02-22T09:38:40.435Z,32.90
2019-02-22T09:41:09.736Z,31.70
2019-02-22T09:43:39.483Z,32.93
2019-02-22T09:46:08.663Z,32.20
2019-02-22T09:48:38.127Z,33.90
2019-02-22T09:51:07.227Z,31.40
2019-02-22T09:53:36.652Z,32.07
2019-02-22T09:56:05.715Z,32.27
2019-02-22T09:58:34.795Z,33.77
2019-02-22T10:01:04.239Z,32.60
2019-02-22T10:03:33.356Z,31.97
2019-02-22T10:06:02.445Z,31.90
2019-02-22T10:08:31.816Z,30.30
2019-02-22T10:11:01.755Z,29.23
2019-02-22T10:13:31.319Z,28.20
2019-02-22T10:16:00.386Z,29.37
2019-02-22T10:18:29.463Z,28.97
2019-02-22T10:20:58.579Z,30.97
2019-02-22T10:23:27.976Z,28.57
2019-02-22T10:25:56.892Z,27.37
2019-02-22T10:28:25.948Z,28.00
2019-02-22T10:30:54.868Z,27.93
2019-02-22T10:33:23.776Z,26.37
2019-02-22T10:35:53.116Z,27.30
2019-02-22T10:38:22.069Z,26.23
2019-02-22T10:40:51.152Z,25.80
2019-02-22T10:43:20.056Z,26.27
2019-02-22T10:45:49.021Z,28.73
2019-02-22T10:48:18.460Z,26.83
2019-02-22T10:50:47.381Z,24.93
2019-02-22T10:53:16.312Z,24.23
2019-02-22T10:55:45.323Z,25.80
2019-02-22T10:58:14.232Z,25.67
2019-02-22T11:00:43.296Z,25.93
2019-02-22T11:03:12.332Z,25.07
2019-02-22T11:05:41.272Z,24.50
2019-02-22T11:08:10.324Z,24.00
2019-02-22T11:10:39.782Z,21.93
2019-02-22T11:13:08.911Z,23.00
2019-02-22T11:15:37.968Z,22.83
2019-02-22T11:18:06.945Z,20.23
2019-02-22T11:20:35.845Z,20.07
2019-02-22T11:23:04.846Z,18.27
2019-02-22T11:25:34.112Z,19.73
2019-02-22T11:28:03.116Z,18.97
2019-02-22T11:30:32.458Z,18.47
2019-02-22T11:33:01.413Z,18.27
2019-02-22T11:35:30.464Z,17.60
2019-02-22T11:37:59.422Z,17.50
2019-02-22T11:40:27.925Z,18.00
2019-02-22T11:42:57.014Z,17.57
2019-02-22T11:45:26.025Z,16.67
2019-02-22T11:47:55.329Z,16.40
2019-02-22T11:50:24.401Z,16.93
2019-02-22T11:52:53.391Z,16.67
2019-02-22T11:55:22.385Z,17.83
2019-02-22T11:57:51.673Z,18.37
2019-02-22T12:00:22.101Z,17.83
2019-02-22T12:02:51.277Z,18.60
2019-02-22T12:05:20.414Z,19.17
2019-02-22T12:07:49.775Z,18.50
2019-02-22T12:10:18.741Z,19.00
2019-02-22T12:12:48.061Z,18.63
2019-02-22T12:15:16.957Z,18.03
2019-02-22T12:17:46.977Z,17.87
2019-02-22T12:20:15.959Z,18.67
2019-02-22T12:22:44.858Z,19.10
2019-02-22T12:25:14.086Z,19.03
2019-02-22T12:27:43.074Z,19.60
2019-02-22T12:30:13.677Z,20.07
2019-02-22T12:32:42.653Z,23.27
2019-02-22T12:35:11.731Z,21.50
2019-02-22T12:37:40.753Z,22.80
2019-02-22T12:40:10.123Z,25.07
2019-02-22T12:42:39.182Z,24.67
2019-02-22T12:45:08.718Z,24.03
2019-02-22T12:47:37.694Z,24.80
2019-02-22T12:50:07.548Z,24.60
2019-02-22T12:52:36.554Z,24.87
2019-02-22T12:55:06.730Z,24.77
2019-02-22T12:57:35.690Z,23.43
2019-02-22T13:00:05.810Z,23.67
2019-02-22T13:02:34.775Z,23.20
2019-02-22T13:05:03.891Z,22.40
2019-02-22T13:07:33.058Z,22.03
2019-02-22T13:10:02.055Z,23.50
2019-02-22T13:12:31.082Z,20.90
2019-02-22T13:15:00.458Z,20.47
2019-02-22T13:17:31.091Z,21.40
2019-02-22T13:20:00.309Z,21.33
2019-02-22T13:22:29.402Z,19.67
2019-02-22T13:24:58.496Z,19.85
2019-02-22T13:27:27.462Z,20.17
2019-02-22T13:29:56.547Z,20.10
2019-02-22T13:32:25.558Z,22.13
2019-02-22T13:34:54.491Z,22.47
2019-02-22T13:37:25.405Z,21.60
2019-02-22T13:39:54.219Z,23.27
2019-02-22T13:42:23.374Z,23.10
2019-02-22T13:44:52.492Z,23.60
2019-02-22T13:47:21.546Z,25.80
2019-02-22T13:49:50.639Z,23.57
2019-02-22T13:52:20.297Z,24.83
2019-02-22T13:54:49.327Z,23.13
2019-02-22T13:57:18.751Z,23.13
2019-02-22T13:59:48.188Z,24.60
2019-02-22T14:02:17.283Z,24.13
2019-02-22T14:04:46.235Z,24.20
2019-02-22T14:07:15.231Z,25.33
2019-02-22T14:09:44.380Z,25.93
2019-02-22T14:12:13.399Z,25.93
2019-02-22T14:14:42.504Z,25.88
2019-02-22T14:17:11.678Z,24.47
2019-02-22T14:19:40.647Z,26.63
2019-02-22T14:22:09.703Z,24.27
2019-02-22T14:24:38.700Z,23.27
2019-02-22T14:27:07.687Z,24.43
2019-02-22T14:29:36.744Z,24.53
2019-02-22T14:32:05.823Z,25.27
2019-02-22T14:34:34.831Z,24.50
2019-02-22T14:37:03.897Z,24.30
2019-02-22T14:39:32.904Z,24.97
2019-02-22T14:42:02.201Z,24.80
2019-02-22T14:44:31.184Z,25.30
2019-02-22T14:47:00.300Z,24.23
2019-02-22T14:49:29.688Z,24.60
2019-02-22T14:51:58.844Z,23.73
2019-02-22T14:54:27.852Z,23.33
2019-02-22T14:56:56.904Z,23.53
2019-02-22T14:59:26.074Z,23.00
2019-02-22T15:01:55.448Z,23.32
2019-02-22T15:04:24.372Z,22.17
2019-02-22T15:06:53.600Z,24.52
2019-02-22T15:09:22.604Z,23.30
2019-02-22T15:11:51.653Z,22.93
2019-02-22T15:14:20.725Z,24.20
2019-02-22T15:17:12.193Z,23.50
2019-02-22T15:19:41.264Z,23.60
2019-02-22T15:22:10.268Z,23.67
2019-02-22T15:24:39.189Z,23.63
2019-02-22T15:27:08.220Z,25.40
2019-02-22T15:29:37.576Z,25.43
2019-02-22T15:32:06.726Z,24.97
2019-02-22T15:34:35.896Z,25.20
2019-02-22T15:37:04.953Z,24.50
2019-02-22T15:39:33.941Z,24.37
2019-02-22T15:42:03.003Z,26.40
2019-02-22T15:44:31.938Z,24.63
2019-02-22T15:47:11.430Z,23.10
2019-02-22T15:49:53.964Z,24.13
2019-02-22T15:52:22.934Z,23.80
2019-02-22T15:54:51.964Z,24.27
2019-02-22T15:57:25.092Z,24.20
2019-02-22T15:59:54.561Z,23.97
2019-02-22T16:02:23.701Z,23.27
2019-02-22T16:04:59.161Z,23.23
2019-02-22T16:07:28.948Z,23.07
2019-02-22T16:09:58.005Z,21.93
2019-02-22T16:12:27.101Z,23.00
2019-02-22T16:14:56.281Z,22.73
2019-02-22T16:17:25.601Z,23.10
2019-02-22T16:19:55.152Z,22.20
2019-02-22T16:22:24.253Z,20.90
2019-02-22T16:24:53.217Z,22.13
2019-02-22T16:27:22.581Z,21.23
2019-02-22T16:29:51.659Z,22.00
2019-02-22T16:32:20.773Z,24.03
2019-02-22T16:34:50.037Z,23.73
2019-02-22T16:37:19.374Z,22.37
2019-02-22T16:39:48.269Z,24.07
2019-02-22T16:42:17.257Z,23.60
2019-02-22T16:44:46.481Z,24.03
2019-02-22T16:47:15.454Z,24.63
2019-02-22T16:49:44.345Z,21.50
2019-02-22T16:52:13.306Z,21.40
2019-02-22T16:54:42.221Z,20.50
2019-02-22T16:57:11.454Z,19.43
2019-02-22T16:59:40.730Z,21.13
2019-02-22T17:02:09.777Z,19.07
2019-02-22T17:04:38.665Z,20.57
2019-02-22T17:07:07.634Z,21.27
2019-02-22T17:09:36.894Z,21.30
2019-02-22T17:12:06.904Z,19.93
2019-02-22T17:14:36.162Z,19.20
2019-02-22T17:17:05.214Z,27.95
2019-02-22T17:19:34.245Z,22.37
2019-02-22T17:22:03.288Z,20.97
2019-02-22T17:24:32.274Z,20.07
2019-02-22T17:27:01.166Z,19.23
2019-02-22T17:29:30.538Z,20.77
2019-02-22T17:31:59.522Z,21.77
2019-02-22T17:34:28.514Z,19.40
2019-02-22T17:36:57.504Z,20.53
2019-02-22T17:39:26.486Z,20.83
2019-02-22T17:41:55.577Z,20.57
2019-02-22T17:44:24.534Z,18.83
2019-02-22T17:46:57.556Z,19.83
2019-02-22T17:49:24.193Z,19.93
2019-02-22T17:51:53.181Z,20.50
2019-02-22T17:54:22.143Z,19.73
2019-02-22T17:56:51.542Z,21.00
2019-02-22T17:59:20.529Z,20.93
2019-02-22T18:01:49.511Z,19.00
2019-02-22T18:04:18.410Z,19.00
2019-02-22T18:06:47.699Z,18.17
2019-02-22T18:09:16.727Z,18.03
2019-02-22T18:11:45.707Z,17.77
2019-02-22T18:14:14.599Z,16.73
2019-02-22T18:16:43.531Z,17.80
2019-02-22T18:19:12.760Z,15.40
2019-02-22T18:21:41.651Z,15.83
2019-02-22T18:24:10.550Z,15.10
2019-02-22T18:26:39.691Z,14.43
2019-02-22T18:29:08.984Z,14.30
2019-02-22T18:31:37.986Z,13.03
2019-02-22T18:34:07.047Z,12.07
2019-02-22T18:36:36.059Z,11.60
2019-02-22T18:39:06.491Z,11.93
2019-02-22T18:41:35.863Z,11.40
2019-02-22T18:44:04.972Z,12.93
2019-02-22T18:46:33.956Z,11.93
2019-02-22T18:49:02.943Z,12.30
2019-02-22T18:51:31.939Z,13.90
2019-02-22T18:54:00.919Z,12.90
2019-02-22T18:56:29.968Z,12.77
2019-02-22T18:58:59.263Z,12.10
2019-02-22T19:01:28.667Z,12.23
2019-02-22T19:03:57.657Z,12.23
2019-02-22T19:06:26.992Z,12.37
2019-02-22T19:08:56.617Z,12.57
2019-02-22T19:11:25.663Z,12.00
2019-02-22T19:13:54.652Z,12.15
2019-02-22T19:16:23.632Z,12.63
2019-02-22T19:18:52.597Z,12.93
2019-02-22T19:21:21.574Z,13.27
2019-02-22T19:23:50.652Z,12.27
2019-02-22T19:26:19.628Z,12.60
2019-02-22T19:28:49.208Z,13.80
2019-02-22T19:31:18.216Z,14.30
2019-02-22T19:33:49.760Z,14.20
2019-02-22T19:36:17.860Z,14.47
2019-02-22T19:38:47.072Z,14.60
2019-02-22T19:41:16.196Z,14.93
2019-02-22T19:43:46.012Z,15.50
2019-02-22T19:46:15.020Z,14.53
2019-02-22T19:48:43.916Z,14.53
2019-02-22T19:51:12.837Z,15.80
2019-02-22T19:53:42.010Z,15.70
2019-02-22T19:56:11.064Z,16.07
2019-02-22T19:58:40.343Z,16.43
2019-02-22T20:01:11.592Z,16.73
2019-02-22T20:03:40.153Z,17.13
2019-02-22T20:06:09.175Z,17.23
2019-02-22T20:08:38.132Z,17.67
2019-02-22T20:11:07.165Z,17.60
2019-02-22T20:13:36.155Z,17.17
2019-02-22T20:16:05.201Z,16.70
2019-02-22T20:18:34.264Z,16.90
2019-02-22T20:21:03.337Z,17.10
2019-02-22T20:23:32.637Z,16.63
2019-02-22T20:26:01.653Z,16.67
2019-02-22T20:28:30.616Z,16.67
2019-02-22T20:30:59.610Z,17.60
2019-02-22T20:33:28.541Z,16.50
2019-02-22T20:35:57.597Z,17.63
2019-02-22T20:38:26.693Z,17.73
2019-02-22T20:40:55.705Z,17.17
2019-02-22T20:43:24.994Z,18.30
2019-02-22T20:45:53.973Z,17.40
2019-02-22T20:48:23.013Z,17.10
2019-02-22T20:50:51.973Z,16.60
2019-02-22T20:53:21.053Z,16.10
2019-02-22T20:55:50.599Z,17.13
2019-02-22T20:58:19.946Z,17.33
2019-02-22T21:00:49.818Z,16.40
2019-02-22T21:03:18.890Z,17.67
2019-02-22T21:05:47.877Z,18.00
2019-02-22T21:08:16.886Z,18.13
2019-02-22T21:10:45.797Z,16.60
2019-02-22T21:13:14.921Z,17.17
2019-02-22T21:15:44.063Z,18.27
2019-02-22T21:18:16.349Z,20.73
2019-02-22T21:20:43.819Z,21.27
2019-02-22T21:23:12.740Z,20.45
2019-02-22T21:25:42.074Z,18.17
2019-02-22T21:28:10.966Z,18.60
2019-02-22T21:30:40.042Z,17.77
2019-02-22T21:33:09.122Z,17.77
2019-02-22T21:35:38.187Z,18.00
2019-02-22T21:38:07.282Z,18.40
2019-02-22T21:40:36.258Z,17.47
2019-02-22T21:43:05.236Z,18.47
2019-02-22T21:45:34.165Z,18.13
2019-02-22T21:48:03.154Z,18.40
2019-02-22T21:50:32.135Z,17.87
2019-02-22T21:53:01.026Z,18.90
2019-02-22T21:55:30.307Z,19.17
2019-02-22T21:57:59.202Z,18.90
2019-02-22T22:00:28.410Z,18.43
2019-02-22T22:02:57.370Z,18.63
2019-02-22T22:05:26.419Z,18.37
2019-02-22T22:07:55.478Z,18.03
2019-02-22T22:10:25.126Z,19.33
2019-02-22T22:12:54.067Z,20.27
2019-02-22T22:15:23.082Z,20.17
2019-02-22T22:17:52.124Z,19.37
2019-02-22T22:20:21.094Z,19.67
2019-02-22T22:22:50.202Z,19.17
2019-02-22T22:25:19.254Z,19.20
2019-02-22T22:27:48.694Z,19.67
2019-02-22T22:30:17.737Z,19.47
2019-02-22T22:32:46.739Z,19.90
2019-02-22T22:35:15.725Z,20.13
2019-02-22T22:37:44.974Z,20.07
2019-02-22T22:40:14.504Z,19.43
2019-02-22T22:42:43.738Z,20.03
2019-02-22T22:45:13.097Z,19.10
2019-02-22T22:47:42.237Z,19.27
2019-02-22T22:50:12.183Z,20.37
2019-02-22T22:52:41.163Z,20.00
2019-02-22T22:55:09.783Z,20.27
2019-02-22T22:57:38.757Z,20.27
2019-02-22T23:00:21.017Z,19.83
2019-02-22T23:02:50.491Z,20.77
2019-02-22T23:05:18.903Z,20.87
2019-02-22T23:07:47.915Z,21.17
2019-02-22T23:10:17.084Z,21.20
2019-02-22T23:12:46.076Z,20.90
2019-02-22T23:15:14.672Z,20.30
2019-02-22T23:17:43.648Z,20.70
2019-02-22T23:20:12.792Z,20.90
2019-02-22T23:22:41.851Z,20.03
2019-02-22T23:25:10.912Z,20.90
2019-02-22T23:27:39.983Z,21.53
2019-02-22T23:30:09.056Z,21.87
2019-02-22T23:32:38.069Z,20.43
2019-02-22T23:36:18.088Z,20.97
2019-02-22T23:39:24.780Z,19.90
2019-02-22T23:44:06.256Z,21.33
2019-02-22T23:45:34.620Z,20.27
2019-02-22T23:48:38.156Z,20.17
2019-02-22T23:51:30.700Z,20.67
2019-02-22T23:57:44.560Z,20.33
